Time;durP1;ratioP1;P1;durP2;ratioP2;P2;SDS_P1;SDS_P2;PMS_P1;PMS_P2;Temp;Humidity;BMP_temperature;BMP_pressure;BME280_temperature;BME280_humidity;BME280_pressure;Samples;Min_cycle;Max_cycle;Signal;HPM_P1;HPM_P2
2022/10/09 00:00:11;;;;;;;10.30;5.20;;;;;;;10.88;92.01;100898.01;88772;1299;22587;-75
2022/10/09 00:02:37;;;;;;;9.40;5.40;;;;;;;10.89;92.13;100899.20;88485;1306;22066;-74
2022/10/09 00:04:42;;;;;;;7.80;5.30;;;;;;;10.91;92.22;100900.70;88739;1287;22573;-74
2022/10/09 00:06:48;;;;;;;9.10;5.70;;;;;;;10.93;92.27;100904.48;88703;1299;22147;-74
2022/10/09 00:08:54;;;;;;;11.40;6.10;;;;;;;10.97;92.32;100907.87;88542;1298;22132;-74
2022/10/09 00:10:59;;;;;;;11.90;5.10;;;;;;;11.00;92.46;100909.67;88750;1294;22093;-74
2022/10/09 00:13:05;;;;;;;8.00;6.10;;;;;;;11.03;92.45;100913.25;88758;1299;22735;-74
2022/10/09 00:15:12;;;;;;;11.80;5.60;;;;;;;11.05;92.39;100917.74;88762;1287;22027;-74
2022/10/09 00:17:17;;;;;;;7.50;5.40;;;;;;;11.06;92.39;100916.45;88551;1298;22045;-74
2022/10/09 00:19:23;;;;;;;8.40;4.70;;;;;;;11.09;92.37;100919.36;88772;1294;22092;-74
2022/10/09 00:21:30;;;;;;;8.30;4.20;;;;;;;11.13;92.31;100922.02;88762;1297;22627;-74
2022/10/09 00:23:36;;;;;;;7.80;5.00;;;;;;;11.15;92.38;100920.56;88753;1278;22047;-74
2022/10/09 00:25:51;;;;;;;7.50;4.90;;;;;;;11.17;92.19;100919.27;88770;1294;22603;-74
2022/10/09 00:27:57;;;;;;;8.20;4.30;;;;;;;11.18;92.03;100923.09;88721;1298;22690;-74
2022/10/09 00:30:04;;;;;;;9.20;4.40;;;;;;;11.19;91.91;100923.94;88790;1292;22063;-74
2022/10/09 00:32:09;;;;;;;8.10;4.00;;;;;;;11.19;91.76;100920.45;88764;1295;22014;-74
2022/10/09 00:34:15;;;;;;;6.40;4.40;;;;;;;11.14;91.45;100914.12;88575;1306;22079;-75
2022/10/09 00:36:22;;;;;;;7.10;4.90;;;;;;;11.09;91.32;100915.84;88792;1283;21995;-75
2022/10/09 00:38:29;;;;;;;7.50;3.60;;;;;;;11.03;90.92;100913.95;88537;1298;22079;-75
2022/10/09 00:40:35;;;;;;;9.70;4.40;;;;;;;10.94;90.72;100914.05;88563;1306;22069;-75
2022/10/09 00:42:40;;;;;;;6.10;3.90;;;;;;;10.86;90.72;100913.77;88758;1285;22067;-75
2022/10/09 00:44:56;;;;;;;8.40;4.10;;;;;;;10.77;90.61;100912.98;88750;1285;22044;-75
2022/10/09 00:47:01;;;;;;;6.20;3.70;;;;;;;10.69;90.73;100912.71;88774;1297;22056;-75
2022/10/09 00:49:15;;;;;;;8.90;4.40;;;;;;;10.63;90.78;100916.91;88765;1297;22055;-75
2022/10/09 00:51:20;;;;;;;9.00;4.50;;;;;;;10.57;90.94;100920.58;88780;1277;22067;-74
2022/10/09 00:53:27;;;;;;;9.20;4.40;;;;;;;10.50;90.97;100922.70;88762;1285;22015;-74
2022/10/09 00:55:33;;;;;;;8.50;4.40;;;;;;;10.45;91.04;100925.98;88548;1305;22127;-74
2022/10/09 00:57:38;;;;;;;5.70;4.20;;;;;;;10.39;90.98;100932.79;88767;1297;22597;-74
2022/10/09 00:59:44;;;;;;;6.90;4.40;;;;;;;10.34;91.04;100937.62;88538;1298;22039;-74
2022/10/09 01:01:49;;;;;;;5.50;4.00;;;;;;;10.32;91.41;100934.38;88761;1291;22057;-74
2022/10/09 01:03:55;;;;;;;5.40;4.70;;;;;;;10.31;91.50;100933.71;88779;1297;22038;-74
2022/10/09 01:06:05;;;;;;;6.50;5.50;;;;;;;10.29;91.67;100937.39;88744;1297;22052;-74
2022/10/09 01:08:14;;;;;;;7.80;4.50;;;;;;;10.30;91.65;100944.19;88766;1288;22083;-74
2022/10/09 01:10:29;;;;;;;9.20;5.10;;;;;;;10.30;91.80;100943.50;88552;1289;21948;-74
2022/10/09 01:12:45;;;;;;;6.20;4.50;;;;;;;10.30;91.88;100947.00;88776;1284;22060;-74
2022/10/09 01:14:58;;;;;;;6.10;4.90;;;;;;;10.31;92.11;100948.36;88565;1306;22061;-74
2022/10/09 01:17:07;;;;;;;7.50;5.10;;;;;;;10.33;91.97;100949.88;88746;1298;22167;-74
2022/10/09 01:19:20;;;;;;;6.40;4.60;;;;;;;10.33;92.08;100950.05;88768;1297;22028;-74
2022/10/09 01:21:27;;;;;;;9.00;4.90;;;;;;;10.31;91.91;100954.98;88568;1305;22776;-74
2022/10/09 01:24:16;;;;;;;9.00;4.10;;;;;;;10.30;91.95;100956.08;88775;1299;22030;-75
2022/10/09 01:26:46;;;;;;;7.70;4.90;;;;;;;10.28;92.32;100960.29;88743;1299;22020;-75
2022/10/09 01:28:54;;;;;;;5.70;4.30;;;;;;;10.27;92.27;100965.20;88732;1299;22107;-75
2022/10/09 01:31:00;;;;;;;7.40;4.50;;;;;;;10.27;92.25;100967.30;88555;1299;22050;-75
2022/10/09 01:33:06;;;;;;;8.20;4.70;;;;;;;10.27;92.18;100964.70;88759;1284;22049;-75
2022/10/09 01:35:12;;;;;;;11.00;5.50;;;;;;;10.26;92.39;100963.46;88744;1291;22706;-75
2022/10/09 01:37:18;;;;;;;10.10;5.10;;;;;;;10.24;92.20;100967.52;88764;1284;22035;-75
2022/10/09 01:39:24;;;;;;;5.40;4.20;;;;;;;10.22;92.06;100971.41;88538;1304;22101;-75
2022/10/09 01:41:30;;;;;;;6.90;5.20;;;;;;;10.20;92.00;100967.64;88750;1297;22199;-74
2022/10/09 01:43:35;;;;;;;7.70;5.30;;;;;;;10.17;91.87;100973.46;88747;1285;22029;-74
2022/10/09 01:45:42;;;;;;;12.10;5.40;;;;;;;10.13;91.89;100974.61;88678;1299;22685;-74
2022/10/09 01:47:48;;;;;;;7.50;4.60;;;;;;;10.08;91.79;100974.91;88714;1294;22676;-74
2022/10/09 01:49:58;;;;;;;6.50;4.80;;;;;;;10.02;91.65;100976.47;88713;1297;22216;-74
2022/10/09 01:52:12;;;;;;;8.70;4.90;;;;;;;9.95;91.48;100979.63;88623;1299;22095;-74
2022/10/09 01:54:18;;;;;;;6.40;4.10;;;;;;;9.88;91.47;100978.06;88734;1294;22042;-74
2022/10/09 01:56:23;;;;;;;5.50;4.30;;;;;;;9.81;91.57;100980.48;88757;1299;22030;-74
2022/10/09 01:58:31;;;;;;;8.00;4.90;;;;;;;9.74;91.42;100979.27;88545;1298;22058;-74
2022/10/09 02:00:41;;;;;;;6.30;5.00;;;;;;;9.69;91.68;100986.54;88558;1306;22819;-74
2022/10/09 02:02:46;;;;;;;6.40;4.60;;;;;;;9.63;91.68;100990.00;88765;1299;22091;-74
2022/10/09 02:04:52;;;;;;;8.30;5.00;;;;;;;9.57;91.74;100991.52;88551;1281;22091;-74
2022/10/09 02:06:58;;;;;;;10.40;5.50;;;;;;;9.54;91.95;100993.52;88736;1287;22673;-74
2022/10/09 02:09:04;;;;;;;7.40;5.10;;;;;;;9.50;91.87;100996.21;88571;1305;22648;-74
2022/10/09 02:11:11;;;;;;;7.50;4.90;;;;;;;9.45;91.91;101004.02;88747;1278;22170;-74
2022/10/09 02:13:17;;;;;;;6.10;5.30;;;;;;;9.42;92.05;101004.61;88837;1274;22040;-74
2022/10/09 02:15:23;;;;;;;6.70;5.20;;;;;;;9.38;92.22;101003.82;88821;1281;22681;-74
2022/10/09 02:17:31;;;;;;;8.60;5.10;;;;;;;9.34;92.10;101004.78;88805;1299;22059;-74
2022/10/09 02:19:40;;;;;;;9.00;5.10;;;;;;;9.31;92.19;101005.73;88819;1296;22044;-74
2022/10/09 02:21:49;;;;;;;13.40;5.40;;;;;;;9.27;92.28;101005.13;88742;1298;22704;-74
2022/10/09 02:23:55;;;;;;;11.50;5.50;;;;;;;9.23;92.21;101006.59;88810;1291;22013;-74
2022/10/09 02:26:00;;;;;;;6.40;4.90;;;;;;;9.19;92.22;101005.29;88747;1298;22301;-74
2022/10/09 02:28:06;;;;;;;8.40;5.30;;;;;;;9.16;92.33;101013.89;88822;1296;22687;-74
2022/10/09 02:30:12;;;;;;;8.10;4.90;;;;;;;9.13;92.29;101014.14;88578;1305;22645;-75
2022/10/09 02:32:18;;;;;;;9.10;5.30;;;;;;;9.08;92.24;101011.80;88820;1294;22043;-75
2022/10/09 02:34:24;;;;;;;8.30;4.90;;;;;;;9.03;92.25;101016.08;88789;1296;22055;-75
2022/10/09 02:36:30;;;;;;;12.10;4.80;;;;;;;9.00;92.37;101019.63;88601;1306;22629;-75
2022/10/09 02:38:36;;;;;;;5.10;3.60;;;;;;;8.97;92.64;101025.44;88610;1297;22065;-75
2022/10/09 02:40:41;;;;;;;7.80;5.00;;;;;;;8.95;92.66;101027.04;88803;1278;22097;-75
2022/10/09 02:42:47;;;;;;;8.00;4.30;;;;;;;8.93;92.65;101032.84;88582;1305;22840;-75
2022/10/09 02:44:52;;;;;;;9.80;5.50;;;;;;;8.89;92.53;101035.69;88828;1296;22647;-75
2022/10/09 02:46:58;;;;;;;7.50;5.10;;;;;;;8.85;92.56;101040.66;88608;1305;22068;-74
2022/10/09 02:49:04;;;;;;;9.20;5.40;;;;;;;8.81;92.43;101044.02;88607;1295;22055;-75
2022/10/09 02:51:09;;;;;;;7.30;4.30;;;;;;;8.76;92.43;101045.17;88822;1295;22713;-75
2022/10/09 02:53:15;;;;;;;6.20;4.30;;;;;;;8.71;92.35;101048.93;88813;1296;22049;-74
2022/10/09 02:55:20;;;;;;;5.80;4.20;;;;;;;8.67;92.40;101052.14;88624;1305;22047;-74
2022/10/09 02:57:26;;;;;;;8.20;5.00;;;;;;;8.63;92.54;101056.21;88783;1299;22688;-74
2022/10/09 02:59:32;;;;;;;9.40;4.70;;;;;;;8.60;92.60;101055.76;88862;1284;22051;-74
2022/10/09 03:01:37;;;;;;;7.30;4.80;;;;;;;8.55;92.45;101055.84;88620;1306;22066;-74
2022/10/09 03:03:43;;;;;;;8.90;4.50;;;;;;;8.50;92.51;101056.63;88832;1291;22088;-74
2022/10/09 03:05:48;;;;;;;9.00;5.80;;;;;;;8.46;92.71;101060.17;88839;1291;22018;-75
2022/10/09 03:07:54;;;;;;;8.70;4.90;;;;;;;8.44;92.65;101064.91;88845;1285;22043;-74
2022/10/09 03:10:00;;;;;;;8.60;5.30;;;;;;;8.40;92.75;101062.38;88773;1299;22667;-74
2022/10/09 03:12:06;;;;;;;8.30;5.30;;;;;;;8.38;93.02;101066.59;88608;1294;22053;-74
2022/10/09 03:14:12;;;;;;;8.40;5.20;;;;;;;8.36;92.99;101064.87;88807;1287;22067;-74
2022/10/09 03:16:19;;;;;;;8.60;5.00;;;;;;;8.33;92.99;101075.17;88758;1298;22084;-74
2022/10/09 03:18:25;;;;;;;8.60;5.10;;;;;;;8.30;93.04;101077.81;88790;1285;22001;-74
2022/10/09 03:20:31;;;;;;;8.10;5.20;;;;;;;8.27;92.96;101082.39;88741;1299;22632;-74
2022/10/09 03:22:37;;;;;;;7.30;4.40;;;;;;;8.24;92.95;101083.48;88824;1281;22029;-74
2022/10/09 03:24:43;;;;;;;8.70;5.90;;;;;;;8.20;93.06;101081.63;88582;1306;22030;-74
2022/10/09 03:26:48;;;;;;;7.70;4.50;;;;;;;8.19;93.11;101083.58;88593;1306;22097;-74
2022/10/09 03:28:54;;;;;;;8.50;5.60;;;;;;;8.15;92.88;101083.45;88782;1296;22039;-74
2022/10/09 03:31:00;;;;;;;10.90;5.40;;;;;;;8.11;92.92;101084.06;88607;1291;22126;-74
2022/10/09 03:33:05;;;;;;;7.50;6.00;;;;;;;8.08;93.20;101084.63;88599;1302;22057;-74
2022/10/09 03:35:13;;;;;;;7.00;5.00;;;;;;;8.05;93.17;101085.38;88831;1294;22065;-74
2022/10/09 03:37:18;;;;;;;7.60;5.40;;;;;;;8.01;93.24;101085.60;88619;1298;22053;-74
2022/10/09 03:39:24;;;;;;;7.80;4.90;;;;;;;7.99;93.29;101087.20;88548;1306;22127;-74
2022/10/09 03:41:30;;;;;;;8.40;5.60;;;;;;;7.96;93.20;101091.42;88834;1288;22046;-74
2022/10/09 03:43:35;;;;;;;8.80;5.90;;;;;;;7.92;93.33;101097.91;88768;1299;22100;-74
2022/10/09 03:45:41;;;;;;;7.40;5.20;;;;;;;7.89;93.38;101097.95;88616;1298;22065;-74
2022/10/09 03:47:47;;;;;;;6.50;4.90;;;;;;;7.86;93.44;101105.11;88616;1305;22108;-74
2022/10/09 03:49:53;;;;;;;8.40;6.30;;;;;;;7.85;93.55;101106.36;88617;1299;22073;-74
2022/10/09 03:51:59;;;;;;;8.30;5.60;;;;;;;7.84;93.66;101112.29;88838;1296;22047;-74
2022/10/09 03:54:05;;;;;;;11.90;4.80;;;;;;;7.81;93.56;101114.23;88805;1291;22018;-74
2022/10/09 03:56:18;;;;;;;8.30;5.80;;;;;;;7.78;93.65;101114.27;88804;1285;22122;-74
2022/10/09 03:58:24;;;;;;;7.30;4.40;;;;;;;7.76;93.82;101115.50;88588;1303;22109;-74
2022/10/09 04:00:30;;;;;;;8.70;5.50;;;;;;;7.77;93.95;101115.50;88612;1302;22232;-74
2022/10/09 04:02:36;;;;;;;8.90;6.60;;;;;;;7.76;93.90;101116.20;88815;1296;22035;-74
2022/10/09 04:04:41;;;;;;;8.40;5.20;;;;;;;7.75;94.09;101117.95;88541;1306;22100;-74
2022/10/09 04:06:47;;;;;;;10.20;6.20;;;;;;;7.77;94.32;101121.05;88800;1294;22039;-74
2022/10/09 04:08:53;;;;;;;10.50;5.30;;;;;;;7.81;94.56;101124.13;88600;1302;22584;-74
2022/10/09 04:10:59;;;;;;;9.60;6.10;;;;;;;7.86;94.86;101122.13;88607;1303;22082;-74
2022/10/09 04:13:05;;;;;;;12.50;5.50;;;;;;;7.91;94.92;101120.16;88618;1303;22643;-74
2022/10/09 04:15:11;;;;;;;8.60;6.20;;;;;;;7.96;95.03;101124.08;88599;1303;22041;-74
2022/10/09 04:17:17;;;;;;;10.00;5.80;;;;;;;8.02;95.32;101125.55;88054;1285;1002069;-74
2022/10/09 04:19:22;;;;;;;9.40;6.40;;;;;;;8.10;95.44;101126.64;88604;1303;22114;-74
2022/10/09 04:21:28;;;;;;;6.40;5.10;;;;;;;8.16;95.57;101123.77;88693;1299;22649;-74
2022/10/09 04:23:33;;;;;;;8.80;6.70;;;;;;;8.21;95.58;101124.73;88628;1304;22088;-74
2022/10/09 04:25:38;;;;;;;11.00;7.40;;;;;;;8.26;95.67;101124.64;88833;1296;22121;-74
2022/10/09 04:27:44;;;;;;;9.30;5.60;;;;;;;8.32;95.76;101128.73;88619;1294;22109;-74
2022/10/09 04:29:50;;;;;;;8.30;6.00;;;;;;;8.37;95.74;101128.83;88612;1303;22082;-75
2022/10/09 04:31:55;;;;;;;7.20;6.10;;;;;;;8.42;95.71;101130.33;88621;1287;22089;-75
2022/10/09 04:34:01;;;;;;;7.20;6.60;;;;;;;8.46;95.82;101136.85;88809;1296;22156;-73
2022/10/09 04:36:13;;;;;;;9.90;6.50;;;;;;;8.51;95.73;101137.29;88768;1298;22060;-74
2022/10/09 04:38:18;;;;;;;13.90;7.30;;;;;;;8.56;95.75;101134.95;88804;1285;22066;-74
2022/10/09 04:40:24;;;;;;;13.80;7.40;;;;;;;8.60;95.76;101138.53;88813;1296;22096;-74
2022/10/09 04:42:30;;;;;;;10.60;7.40;;;;;;;8.64;95.74;101141.44;88816;1296;22719;-74
2022/10/09 04:44:36;;;;;;;9.10;8.10;;;;;;;8.67;95.64;101144.33;88591;1288;22064;-75
2022/10/09 04:46:41;;;;;;;13.90;8.10;;;;;;;8.70;95.48;101149.66;88837;1284;22058;-75
2022/10/09 04:48:47;;;;;;;12.30;8.60;;;;;;;8.73;95.38;101148.40;88814;1296;22153;-75
2022/10/09 04:50:53;;;;;;;11.50;8.00;;;;;;;8.76;95.34;101161.20;88747;1289;22053;-74
2022/10/09 04:52:58;;;;;;;13.50;7.90;;;;;;;8.79;95.34;101165.33;88827;1296;22092;-74
2022/10/09 04:55:04;;;;;;;12.30;9.40;;;;;;;8.81;95.26;101167.20;88807;1285;22017;-74
2022/10/09 04:57:10;;;;;;;12.10;8.70;;;;;;;8.84;95.35;101166.64;88810;1296;22051;-74
2022/10/09 04:59:15;;;;;;;8.90;8.10;;;;;;;8.85;95.12;101170.10;88817;1296;22779;-74
2022/10/09 05:01:23;;;;;;;12.60;8.20;;;;;;;8.86;95.01;101170.93;88813;1295;22061;-74
2022/10/09 05:03:28;;;;;;;12.00;9.30;;;;;;;8.89;95.23;101166.89;88821;1296;22023;-75
2022/10/09 05:05:34;;;;;;;14.30;8.40;;;;;;;8.90;94.92;101171.03;88616;1302;22249;-73
2022/10/09 05:07:39;;;;;;;12.20;9.00;;;;;;;8.91;94.91;101170.50;88627;1294;22674;-74
2022/10/09 05:09:45;;;;;;;9.70;8.80;;;;;;;8.93;94.80;101180.41;88637;1298;22639;-74
2022/10/09 05:11:50;;;;;;;11.00;8.80;;;;;;;8.94;94.90;101188.72;88629;1294;22021;-74
2022/10/09 05:13:56;;;;;;;12.30;9.60;;;;;;;8.96;94.88;101189.38;88547;1293;359044;-74
2022/10/09 05:16:03;;;;;;;12.90;9.50;;;;;;;8.99;94.94;101195.26;88627;1295;22119;-74
2022/10/09 05:18:08;;;;;;;12.30;10.00;;;;;;;9.01;95.00;101201.65;88823;1296;22100;-74
2022/10/09 05:20:14;;;;;;;10.60;9.30;;;;;;;9.03;94.95;101201.79;88619;1294;22070;-74
2022/10/09 05:22:20;;;;;;;10.30;9.30;;;;;;;9.04;94.84;101200.56;88644;1296;22055;-74
2022/10/09 05:24:26;;;;;;;16.00;10.20;;;;;;;9.07;95.00;101203.98;88829;1296;22045;-74
2022/10/09 05:26:31;;;;;;;14.70;10.30;;;;;;;9.09;94.90;101208.81;88625;1304;22059;-74
2022/10/09 05:28:37;;;;;;;12.20;9.00;;;;;;;9.12;94.72;101207.89;88804;1296;22741;-74
2022/10/09 05:30:43;;;;;;;15.80;10.00;;;;;;;9.14;94.60;101217.42;88792;1296;22050;-74
2022/10/09 05:32:49;;;;;;;11.80;10.30;;;;;;;9.16;94.61;101218.10;88806;1292;22030;-74
2022/10/09 05:34:55;;;;;;;16.90;10.80;;;;;;;9.16;94.38;101222.61;88601;1303;22062;-75
2022/10/09 05:37:00;;;;;;;11.60;10.00;;;;;;;9.17;94.41;101221.38;88613;1303;22175;-74
2022/10/09 05:39:06;;;;;;;12.40;10.40;;;;;;;9.19;94.44;101225.33;88823;1297;22074;-74
2022/10/09 05:41:17;;;;;;;11.10;9.70;;;;;;;9.20;94.43;101226.52;88797;1286;22085;-75
2022/10/09 05:43:24;;;;;;;11.40;10.30;;;;;;;9.23;94.34;101230.13;88552;1306;23129;-75
2022/10/09 05:45:30;;;;;;;15.50;10.30;;;;;;;9.25;94.46;101238.28;88836;1292;22021;-75
2022/10/09 05:47:36;;;;;;;25.40;10.80;;;;;;;9.27;94.42;101238.07;88824;1296;22715;-75
2022/10/09 05:49:42;;;;;;;12.80;10.80;;;;;;;9.30;94.38;101235.57;88822;1296;22059;-75
2022/10/09 05:51:48;;;;;;;12.70;10.40;;;;;;;9.32;94.37;101239.03;88828;1292;22145;-75
2022/10/09 05:53:54;;;;;;;12.50;10.10;;;;;;;9.35;94.28;101243.48;88792;1299;22073;-75
2022/10/09 05:56:13;;;;;;;11.80;10.60;;;;;;;9.36;94.08;101248.70;88820;1296;22013;-75
2022/10/09 05:58:19;;;;;;;15.20;10.30;;;;;;;9.39;94.21;101250.02;88617;1294;22056;-74
2022/10/09 06:00:25;;;;;;;11.90;10.80;;;;;;;9.40;93.97;101252.63;88622;1294;22105;-74
2022/10/09 06:02:30;;;;;;;11.30;10.30;;;;;;;9.41;94.00;101260.45;88602;1306;22601;-74
2022/10/09 06:04:36;;;;;;;15.90;10.70;;;;;;;9.44;93.85;101265.24;88823;1296;22122;-74
2022/10/09 06:06:41;;;;;;;13.00;11.70;;;;;;;9.46;93.89;101267.66;88628;1306;22702;-74
2022/10/09 06:08:47;;;;;;;12.50;11.20;;;;;;;9.49;93.83;101272.66;88839;1296;22053;-74
2022/10/09 06:10:53;;;;;;;11.40;10.40;;;;;;;9.51;93.81;101273.14;88611;1306;22663;-74
2022/10/09 06:12:58;;;;;;;10.60;9.50;;;;;;;9.54;93.65;101273.95;88805;1296;22027;-74
2022/10/09 06:15:04;;;;;;;12.20;10.40;;;;;;;9.55;93.49;101278.11;88793;1296;22693;-74
2022/10/09 06:17:10;;;;;;;10.60;9.60;;;;;;;9.59;93.48;101284.32;88829;1295;22708;-74
2022/10/09 06:19:16;;;;;;;11.60;10.40;;;;;;;9.63;93.59;101280.40;88601;1299;22080;-74
2022/10/09 06:21:23;;;;;;;11.00;9.80;;;;;;;9.69;93.78;101282.70;88783;1297;22642;-74
2022/10/09 06:23:28;;;;;;;10.80;9.30;;;;;;;9.77;94.00;101283.08;88611;1306;22121;-74
2022/10/09 06:25:34;;;;;;;12.50;9.30;;;;;;;9.86;94.10;101285.35;88747;1287;22029;-75
2022/10/09 06:27:39;;;;;;;12.70;9.20;;;;;;;9.91;93.68;101291.52;88792;1288;22652;-74
2022/10/09 06:29:45;;;;;;;9.50;8.50;;;;;;;9.96;93.55;101296.81;88533;1306;22090;-74
2022/10/09 06:31:50;;;;;;;9.10;8.20;;;;;;;10.02;93.43;101301.05;88659;1305;22072;-74
2022/10/09 06:33:57;;;;;;;9.70;8.80;;;;;;;10.06;93.45;101297.66;88620;1306;22067;-74
2022/10/09 06:36:05;;;;;;;12.50;9.30;;;;;;;10.09;93.31;101302.64;88624;1296;22649;-74
2022/10/09 06:38:11;;;;;;;10.30;8.10;;;;;;;10.14;92.91;101309.34;88640;1306;22135;-75
2022/10/09 06:40:17;;;;;;;9.60;8.20;;;;;;;10.15;92.60;101317.35;88781;1299;22233;-75
2022/10/09 06:42:22;;;;;;;11.70;8.40;;;;;;;10.16;92.26;101320.98;88649;1307;22081;-74
2022/10/09 06:44:28;;;;;;;10.70;9.60;;;;;;;10.16;92.18;101321.17;88825;1288;22746;-74
2022/10/09 06:46:35;;;;;;;9.90;8.60;;;;;;;10.19;92.24;101329.27;88804;1296;22597;-74
2022/10/09 06:48:41;;;;;;;8.70;7.80;;;;;;;10.22;92.28;101326.97;88783;1298;22045;-74
2022/10/09 06:50:47;;;;;;;9.40;8.10;;;;;;;10.25;92.09;101330.93;88615;1307;22084;-74
2022/10/09 06:52:54;;;;;;;8.90;8.00;;;;;;;10.27;91.77;101338.55;88597;1306;22597;-74
2022/10/09 06:55:00;;;;;;;8.70;5.70;;;;;;;10.29;91.29;101342.52;88745;1291;22244;-74
2022/10/09 06:57:05;;;;;;;5.70;4.50;;;;;;;10.30;91.09;101344.25;88602;1302;22080;-74
2022/10/09 06:59:12;;;;;;;4.50;3.90;;;;;;;10.33;90.58;101348.89;88753;1298;22038;-74
2022/10/09 07:01:19;;;;;;;3.70;3.40;;;;;;;10.33;90.19;101354.81;87996;1290;1002249;-74
2022/10/09 07:03:24;;;;;;;4.40;3.50;;;;;;;10.33;89.92;101359.38;88807;1297;22094;-74
2022/10/09 07:05:30;;;;;;;3.50;3.20;;;;;;;10.34;89.86;101363.71;88807;1292;22049;-74
2022/10/09 07:07:39;;;;;;;3.60;2.70;;;;;;;10.33;89.13;101365.66;88788;1302;22029;-74
2022/10/09 07:09:44;;;;;;;4.90;2.70;;;;;;;10.30;89.06;101372.84;88597;1307;22116;-74
2022/10/09 07:11:50;;;;;;;3.40;3.00;;;;;;;10.28;88.72;101373.94;88616;1285;22640;-74
2022/10/09 07:13:57;;;;;;;3.50;3.10;;;;;;;10.27;88.56;101371.71;88627;1305;22131;-74
2022/10/09 07:16:02;;;;;;;4.50;2.90;;;;;;;10.26;88.13;101372.59;88774;1302;22749;-74
2022/10/09 07:18:08;;;;;;;3.60;3.30;;;;;;;10.23;87.96;101375.42;88627;1304;22092;-74
2022/10/09 07:20:14;;;;;;;3.10;2.90;;;;;;;10.24;88.22;101376.28;88537;1306;22644;-74
2022/10/09 07:22:20;;;;;;;4.70;2.90;;;;;;;10.28;88.38;101375.49;88863;1302;22854;-74
2022/10/09 07:24:26;;;;;;;7.70;3.20;;;;;;;10.32;88.04;101375.08;88628;1302;22119;-74
2022/10/09 07:26:33;;;;;;;4.50;2.70;;;;;;;10.38;88.30;101380.20;88791;1302;22072;-74
2022/10/09 07:28:39;;;;;;;3.50;3.20;;;;;;;10.44;88.28;101381.98;88826;1292;22013;-74
2022/10/09 07:30:45;;;;;;;4.10;3.10;;;;;;;10.51;88.46;101385.52;88812;1297;22156;-74
2022/10/09 07:32:52;;;;;;;5.60;3.40;;;;;;;10.59;88.60;101381.33;88821;1289;22012;-74
2022/10/09 07:34:58;;;;;;;4.30;3.00;;;;;;;10.69;88.53;101387.22;88755;1297;22714;-75
2022/10/09 07:37:04;;;;;;;3.60;3.10;;;;;;;10.77;88.29;101384.41;88774;1302;22062;-75
2022/10/09 07:39:09;;;;;;;6.30;4.00;;;;;;;10.83;87.95;101387.56;88604;1309;22080;-75
2022/10/09 07:41:15;;;;;;;4.30;2.60;;;;;;;10.89;87.70;101385.02;88815;1297;22040;-75
2022/10/09 07:43:21;;;;;;;3.30;2.60;;;;;;;10.93;87.25;101387.88;88771;1297;22681;-75
2022/10/09 07:45:27;;;;;;;3.60;3.20;;;;;;;10.96;87.20;101391.29;88799;1302;22053;-75
2022/10/09 07:47:32;;;;;;;4.00;3.60;;;;;;;10.99;86.77;101394.71;88797;1280;22022;-75
2022/10/09 07:49:38;;;;;;;4.30;3.70;;;;;;;10.99;86.31;101397.35;88795;1296;22627;-75
2022/10/09 07:51:44;;;;;;;6.90;4.20;;;;;;;11.01;86.25;101400.26;88814;1283;22058;-74
2022/10/09 07:53:49;;;;;;;7.20;4.70;;;;;;;11.01;86.11;101400.60;88791;1297;22046;-74
2022/10/09 07:55:55;;;;;;;5.90;4.70;;;;;;;11.02;86.12;101404.59;88791;1281;22007;-74
2022/10/09 07:58:00;;;;;;;5.10;4.60;;;;;;;11.04;86.27;101407.52;88810;1296;22715;-74
2022/10/09 08:00:10;;;;;;;7.60;5.20;;;;;;;11.06;85.88;101407.48;88792;1289;22058;-74
2022/10/09 08:02:16;;;;;;;6.80;4.50;;;;;;;11.07;85.50;101412.48;88797;1302;22634;-74
2022/10/09 08:04:22;;;;;;;5.80;4.00;;;;;;;11.07;85.35;101416.52;88802;1297;22618;-74
2022/10/09 08:06:28;;;;;;;5.60;4.50;;;;;;;11.09;85.26;101416.48;88822;1291;22046;-73
2022/10/09 08:08:33;;;;;;;8.00;5.30;;;;;;;11.12;85.20;101420.59;88622;1309;22041;-73
2022/10/09 08:10:39;;;;;;;5.00;4.50;;;;;;;11.17;84.96;101425.55;88830;1294;22189;-73
2022/10/09 08:12:44;;;;;;;4.50;4.10;;;;;;;11.22;85.16;101425.78;88621;1304;22225;-73
2022/10/09 08:14:50;;;;;;;5.10;4.10;;;;;;;11.26;84.78;101430.58;88608;1304;22148;-75
2022/10/09 08:16:56;;;;;;;7.70;3.70;;;;;;;11.30;85.14;101436.07;88626;1302;22122;-74
2022/10/09 08:19:02;;;;;;;3.80;3.40;;;;;;;11.35;85.13;101437.01;88830;1297;22052;-74
2022/10/09 08:21:10;;;;;;;3.90;3.50;;;;;;;11.40;84.76;101441.25;88609;1304;22029;-75
2022/10/09 08:23:15;;;;;;;3.70;3.40;;;;;;;11.45;84.38;101441.48;88607;1304;22884;-75
2022/10/09 08:25:21;;;;;;;5.30;3.60;;;;;;;11.49;84.23;101443.66;88838;1289;22120;-75
2022/10/09 08:27:27;;;;;;;4.80;3.40;;;;;;;11.52;84.07;101449.15;88842;1296;22056;-75
2022/10/09 08:29:33;;;;;;;3.00;2.70;;;;;;;11.54;83.61;101450.68;88619;1304;22109;-74
2022/10/09 08:31:39;;;;;;;6.10;3.30;;;;;;;11.56;83.35;101454.81;88835;1296;22064;-74
2022/10/09 08:33:44;;;;;;;5.90;4.10;;;;;;;11.59;83.18;101455.64;88799;1296;22026;-74
2022/10/09 08:35:50;;;;;;;3.30;2.80;;;;;;;11.61;82.65;101455.74;88803;1297;22110;-74
2022/10/09 08:37:56;;;;;;;3.70;2.60;;;;;;;11.62;82.49;101450.83;88788;1296;22110;-75
2022/10/09 08:40:02;;;;;;;10.10;3.60;;;;;;;11.68;82.12;101453.15;88808;1288;22032;-75
2022/10/09 08:42:25;;;;;;;4.30;3.00;;;;;;;11.72;81.78;101452.87;88818;1296;22042;-75
2022/10/09 08:44:34;;;;;;;5.10;2.50;;;;;;;11.78;82.12;101457.24;88629;1288;22270;-75
2022/10/09 08:46:48;;;;;;;4.80;3.20;;;;;;;11.89;82.57;101457.70;88605;1295;22059;-74
2022/10/09 08:48:55;;;;;;;5.20;2.50;;;;;;;11.99;82.67;101463.38;88618;1301;22166;-74
2022/10/09 08:51:01;;;;;;;3.30;2.70;;;;;;;12.08;82.54;101465.23;88600;1304;22069;-74
2022/10/09 08:53:28;;;;;;;6.20;3.10;;;;;;;12.17;82.25;101467.45;88825;1281;22123;-74
2022/10/09 08:55:39;;;;;;;9.20;3.60;;;;;;;12.25;81.81;101468.09;88640;1304;22076;-75
2022/10/09 08:57:46;;;;;;;5.60;3.10;;;;;;;12.32;81.56;101468.27;88841;1292;22006;-73
2022/10/09 08:59:52;;;;;;;5.20;4.60;;;;;;;12.37;81.38;101470.92;88620;1304;22076;-74
2022/10/09 09:02:06;;;;;;;7.10;4.80;;;;;;;12.42;81.16;101470.79;88613;1304;22045;-74
2022/10/09 09:04:43;;;;;;;5.70;4.70;;;;;;;12.47;81.02;101470.82;88837;1296;22039;-74
2022/10/09 09:06:55;;;;;;;10.10;4.80;;;;;;;12.50;80.84;101477.04;88556;1305;22068;-74
2022/10/09 09:09:04;;;;;;;7.70;5.50;;;;;;;12.51;80.73;101476.48;88823;1288;22140;-75
2022/10/09 09:11:22;;;;;;;6.80;6.10;;;;;;;12.49;80.19;101480.58;88808;1283;22039;-75
2022/10/09 09:13:40;;;;;;;5.90;5.30;;;;;;;12.47;80.36;101478.34;88616;1295;22111;-75
2022/10/09 09:15:49;;;;;;;7.50;6.70;;;;;;;12.47;79.99;101474.84;88803;1289;22047;-75
2022/10/09 09:18:00;;;;;;;7.70;5.50;;;;;;;12.48;80.00;101479.73;88533;1289;22226;-76
2022/10/09 09:20:12;;;;;;;7.30;6.40;;;;;;;12.49;79.81;101477.05;88601;1304;22097;-76
2022/10/09 09:22:17;;;;;;;6.50;5.60;;;;;;;12.52;80.01;101481.86;88823;1296;22608;-76
2022/10/09 09:24:27;;;;;;;8.30;5.50;;;;;;;12.56;79.87;101478.61;88795;1285;22130;-76
2022/10/09 09:26:33;;;;;;;6.00;5.20;;;;;;;12.61;79.67;101479.86;88801;1289;22643;-76
2022/10/09 09:28:39;;;;;;;6.00;4.80;;;;;;;12.69;79.65;101481.92;88508;1289;22134;-76
2022/10/09 09:30:47;;;;;;;4.20;3.30;;;;;;;12.77;79.37;101483.27;88598;1304;22070;-76
2022/10/09 09:32:59;;;;;;;4.10;3.40;;;;;;;12.84;79.02;101487.08;88620;1296;22695;-76
2022/10/09 09:35:12;;;;;;;5.60;3.80;;;;;;;12.89;78.51;101487.62;88599;1301;22071;-76
2022/10/09 09:37:18;;;;;;;4.80;3.30;;;;;;;12.88;77.51;101488.20;88775;1297;22634;-76
2022/10/09 09:39:27;;;;;;;5.70;3.30;;;;;;;12.88;77.44;101490.10;88766;1294;22057;-76
2022/10/09 09:41:32;;;;;;;9.00;3.80;;;;;;;12.88;77.51;101489.41;88836;1288;22050;-76
2022/10/09 09:43:38;;;;;;;5.70;3.20;;;;;;;12.90;77.40;101491.77;88804;1291;22124;-76
2022/10/09 09:45:44;;;;;;;12.00;3.50;;;;;;;12.96;77.25;101495.48;88770;1297;22714;-76
2022/10/09 09:47:52;;;;;;;3.40;3.00;;;;;;;13.04;77.41;101497.36;88847;1296;22224;-76
2022/10/09 09:49:59;;;;;;;4.60;3.30;;;;;;;13.12;77.55;101503.21;88834;1296;22080;-76
2022/10/09 09:52:07;;;;;;;7.00;3.90;;;;;;;13.22;77.52;101500.67;88606;1295;22728;-75